Time;durP1;ratioP1;P1;durP2;ratioP2;P2;SDS_P1;SDS_P2;PMS_P1;PMS_P2;Temp;Humidity;BMP_temperature;BMP_pressure;BME280_temperature;BME280_humidity;BME280_pressure;Samples;Min_cycle;Max_cycle;Signal;HPM_P1;HPM_P2
2021/06/16 00:00:11;;;;;;;0.95;0.43;;;26.10;37.10;;;;;;5089713;28;20328;-51
2021/06/16 00:02:42;;;;;;;1.05;0.60;;;26.00;37.00;;;;;;5093475;28;20025;-51
2021/06/16 00:05:10;;;;;;;1.48;0.65;;;26.00;37.10;;;;;;5097090;28;20024;-50
2021/06/16 00:07:35;;;;;;;2.20;0.60;;;26.10;37.20;;;;;;5096315;28;20030;-51
2021/06/16 00:10:02;;;;;;;0.80;0.43;;;26.00;37.10;;;;;;5088923;28;20103;-54
2021/06/16 00:12:28;;;;;;;1.48;0.60;;;26.00;37.10;;;;;;5090705;28;20028;-51
2021/06/16 00:14:54;;;;;;;1.45;0.55;;;26.00;37.10;;;;;;5096799;28;20051;-52
2021/06/16 00:17:20;;;;;;;1.70;0.77;;;26.00;37.20;;;;;;5085442;28;20040;-49
2021/06/16 00:19:46;;;;;;;2.08;0.50;;;26.00;37.20;;;;;;5096150;28;20071;-51
2021/06/16 00:22:13;;;;;;;1.05;0.45;;;25.90;37.20;;;;;;5093830;28;20391;-50
2021/06/16 00:24:39;;;;;;;1.42;0.50;;;26.00;37.20;;;;;;5083432;28;20099;-46
2021/06/16 00:27:05;;;;;;;1.58;0.57;;;25.90;37.20;;;;;;5086744;28;20036;-52
2021/06/16 00:29:30;;;;;;;3.00;0.93;;;25.90;37.20;;;;;;5084053;28;20016;-56
2021/06/16 00:31:56;;;;;;;1.75;0.50;;;25.90;37.30;;;;;;5096797;28;20328;-52
2021/06/16 00:34:22;;;;;;;2.00;0.55;;;25.90;37.30;;;;;;5092738;28;20078;-51
2021/06/16 00:36:48;;;;;;;1.55;0.75;;;25.90;37.30;;;;;;5095771;28;20024;-51
2021/06/16 00:39:14;;;;;;;2.60;0.90;;;25.90;37.30;;;;;;5096512;28;20451;-49
2021/06/16 00:41:41;;;;;;;1.80;0.73;;;25.90;37.30;;;;;;5091570;28;20067;-49
2021/06/16 00:44:07;;;;;;;1.48;0.60;;;25.90;37.30;;;;;;5082680;28;20036;-49
2021/06/16 00:46:33;;;;;;;1.23;0.60;;;25.90;37.30;;;;;;5092406;28;20455;-49
2021/06/16 00:48:59;;;;;;;1.35;0.50;;;25.90;37.30;;;;;;5096505;28;20035;-57
2021/06/16 00:51:25;;;;;;;1.17;0.57;;;25.80;37.30;;;;;;5095300;28;20020;-50
2021/06/16 00:53:51;;;;;;;2.78;0.65;;;25.80;37.30;;;;;;5095395;28;20036;-54
2021/06/16 00:56:17;;;;;;;1.10;0.50;;;25.90;37.40;;;;;;5089067;28;20042;-52
2021/06/16 00:58:43;;;;;;;1.42;0.50;;;25.80;37.30;;;;;;5095195;28;20335;-52
2021/06/16 01:01:20;;;;;;;1.02;0.50;;;25.80;37.30;;;;;;5094306;28;20031;-53
2021/06/16 01:04:17;;;;;;;1.88;0.77;;;25.80;37.30;;;;;;5089495;28;20050;-52
2021/06/16 01:06:58;;;;;;;0.68;0.43;;;25.80;37.30;;;;;;5086534;28;20028;-53
2021/06/16 01:09:44;;;;;;;1.67;0.57;;;25.80;37.30;;;;;;5095661;28;20032;-55
2021/06/16 01:12:23;;;;;;;3.45;0.60;;;25.80;37.30;;;;;;5092015;28;20375;-49
2021/06/16 01:15:00;;;;;;;1.33;0.52;;;25.80;37.20;;;;;;5084333;28;20040;-53
2021/06/16 01:17:36;;;;;;;2.08;0.60;;;25.70;37.20;;;;;;5091375;28;20025;-56
2021/06/16 01:20:24;;;;;;;1.95;0.70;;;25.70;37.20;;;;;;5090261;28;20070;-56
2021/06/16 01:23:02;;;;;;;0.57;0.40;;;25.70;37.10;;;;;;5085967;28;20397;-55
2021/06/16 01:25:50;;;;;;;0.85;0.45;;;25.70;37.20;;;;;;5091420;28;20059;-50
2021/06/16 01:28:19;;;;;;;1.95;0.63;;;25.70;37.20;;;;;;5076274;28;20044;-57
2021/06/16 01:30:47;;;;;;;1.45;0.60;;;25.70;37.20;;;;;;5093511;28;20520;-48
2021/06/16 01:33:14;;;;;;;1.20;0.40;;;25.70;37.20;;;;;;5091491;28;20074;-57
2021/06/16 01:35:46;;;;;;;1.90;0.80;;;25.70;37.20;;;;;;5096183;28;20059;-52
2021/06/16 01:38:14;;;;;;;1.80;0.73;;;25.70;37.20;;;;;;5095276;28;20320;-55
2021/06/16 01:40:42;;;;;;;1.20;0.40;;;25.70;37.20;;;;;;5085148;28;20028;-55
2021/06/16 01:43:09;;;;;;;1.02;0.50;;;25.70;37.10;;;;;;5082570;28;20031;-49
2021/06/16 01:45:37;;;;;;;1.20;0.60;;;25.60;37.10;;;;;;5094448;28;20024;-52
2021/06/16 01:48:06;;;;;;;1.80;0.60;;;25.70;37.20;;;;;;5094922;28;20035;-52
2021/06/16 01:50:33;;;;;;;1.25;0.57;;;25.60;37.10;;;;;;5081506;28;20028;-51
2021/06/16 01:53:00;;;;;;;2.05;0.50;;;25.60;37.10;;;;;;5092601;28;20024;-55
2021/06/16 01:55:26;;;;;;;2.22;0.60;;;25.60;37.10;;;;;;5094958;28;20123;-53
2021/06/16 01:57:56;;;;;;;1.83;0.47;;;25.60;37.10;;;;;;5093932;28;20076;-52
2021/06/16 02:00:23;;;;;;;1.02;0.50;;;25.60;37.10;;;;;;5094375;28;20059;-56
2021/06/16 02:02:49;;;;;;;0.47;0.30;;;25.60;37.10;;;;;;5087645;28;20033;-55
2021/06/16 02:05:19;;;;;;;1.05;0.52;;;25.60;37.10;;;;;;5094234;28;20043;-55
2021/06/16 02:07:55;;;;;;;2.10;0.50;;;25.60;37.10;;;;;;5093903;28;20115;-53
2021/06/16 02:10:25;;;;;;;1.40;0.52;;;25.60;37.10;;;;;;5094158;28;20035;-56
2021/06/16 02:12:53;;;;;;;1.67;0.60;;;25.60;37.20;;;;;;5081215;28;20059;-53
2021/06/16 02:15:21;;;;;;;1.35;0.50;;;25.60;37.20;;;;;;5094463;28;20308;-52
2021/06/16 02:17:55;;;;;;;2.00;0.60;;;25.60;37.20;;;;;;5077479;28;20040;-53
2021/06/16 02:20:21;;;;;;;1.55;0.70;;;25.60;37.20;;;;;;5093117;28;20058;-53
2021/06/16 02:22:49;;;;;;;2.15;0.68;;;25.50;37.10;;;;;;5093906;28;20028;-50
2021/06/16 02:25:16;;;;;;;2.25;0.90;;;25.50;37.10;;;;;;5093206;28;20102;-53
2021/06/16 02:27:43;;;;;;;0.73;0.38;;;25.50;37.10;;;;;;5089643;28;20048;-54
2021/06/16 02:30:09;;;;;;;1.55;0.65;;;25.50;37.10;;;;;;5088610;28;20036;-53
2021/06/16 02:32:36;;;;;;;2.50;0.50;;;25.50;37.10;;;;;;5085862;28;20110;-51
2021/06/16 02:35:03;;;;;;;0.80;0.43;;;25.50;37.10;;;;;;5080377;28;20459;-47
2021/06/16 02:37:30;;;;;;;1.20;0.57;;;25.50;37.20;;;;;;5086638;28;20119;-51
2021/06/16 02:40:01;;;;;;;0.88;0.50;;;25.50;37.10;;;;;;5085872;28;20441;-54
2021/06/16 02:42:28;;;;;;;1.20;0.50;;;25.50;37.20;;;;;;5093526;28;20042;-55
2021/06/16 02:44:54;;;;;;;1.15;0.50;;;25.50;37.20;;;;;;5093420;28;20426;-52
2021/06/16 02:47:21;;;;;;;1.27;0.57;;;25.50;37.20;;;;;;5093383;28;20028;-52
2021/06/16 02:49:55;;;;;;;2.38;0.60;;;25.50;37.20;;;;;;5093954;28;20027;-54
2021/06/16 02:52:22;;;;;;;1.40;0.60;;;25.50;37.20;;;;;;5083543;28;20028;-52
2021/06/16 02:54:53;;;;;;;1.13;0.45;;;25.40;37.20;;;;;;5086211;28;20094;-52
2021/06/16 02:57:22;;;;;;;1.55;0.60;;;25.50;37.20;;;;;;5079944;28;20036;-55
2021/06/16 02:59:50;;;;;;;2.20;0.60;;;25.50;37.30;;;;;;5094088;28;20032;-51
2021/06/16 03:02:20;;;;;;;2.08;0.80;;;25.40;37.20;;;;;;5092669;28;20176;-48
2021/06/16 03:04:47;;;;;;;1.38;0.55;;;25.40;37.20;;;;;;5091603;28;20103;-54
2021/06/16 03:07:15;;;;;;;2.22;0.52;;;25.40;37.30;;;;;;5088401;28;20025;-56
2021/06/16 03:09:44;;;;;;;1.58;0.60;;;25.40;37.30;;;;;;5092789;28;20023;-55
2021/06/16 03:12:11;;;;;;;0.98;0.55;;;25.40;37.30;;;;;;5093065;28;20036;-53
2021/06/16 03:14:37;;;;;;;2.03;0.60;;;25.40;37.30;;;;;;5088261;28;20032;-52
2021/06/16 03:17:05;;;;;;;1.70;0.60;;;25.40;37.30;;;;;;5088812;28;20064;-50
2021/06/16 03:19:31;;;;;;;1.85;0.65;;;25.40;37.70;;;;;;5093550;28;20044;-52
2021/06/16 03:21:58;;;;;;;1.30;0.45;;;25.40;37.40;;;;;;5091840;28;20031;-55
2021/06/16 03:24:25;;;;;;;1.52;0.50;;;25.40;37.40;;;;;;5093391;28;20042;-56
2021/06/16 03:26:51;;;;;;;2.22;0.70;;;25.40;37.40;;;;;;5093121;28;20040;-49
2021/06/16 03:29:19;;;;;;;0.80;0.40;;;25.40;37.40;;;;;;5093895;28;20024;-49
2021/06/16 03:31:46;;;;;;;1.30;0.63;;;25.40;37.40;;;;;;5082493;28;20028;-53
2021/06/16 03:34:12;;;;;;;1.63;0.70;;;25.30;37.40;;;;;;5087711;28;20136;-56
2021/06/16 03:36:39;;;;;;;2.75;0.55;;;25.30;37.40;;;;;;5097885;28;20059;-52
2021/06/16 03:39:06;;;;;;;1.17;0.70;;;25.30;37.40;;;;;;5095893;28;20028;-52
2021/06/16 03:41:36;;;;;;;0.90;0.60;;;25.30;37.40;;;;;;5090636;28;20028;-54
2021/06/16 03:44:05;;;;;;;1.40;0.60;;;25.30;37.40;;;;;;5093057;28;20096;-56
2021/06/16 03:46:34;;;;;;;1.23;0.68;;;25.30;37.40;;;;;;5097759;28;20540;-54
2021/06/16 03:49:02;;;;;;;0.63;0.40;;;25.30;37.40;;;;;;5090151;28;20043;-51
2021/06/16 03:51:29;;;;;;;1.85;0.60;;;25.30;37.50;;;;;;5089831;28;20023;-46
2021/06/16 03:53:55;;;;;;;1.30;0.65;;;25.30;37.50;;;;;;5091650;28;20110;-57
2021/06/16 03:56:24;;;;;;;1.30;0.52;;;25.40;37.50;;;;;;5078913;28;20111;-47
2021/06/16 03:58:54;;;;;;;2.00;0.90;;;25.40;37.50;;;;;;5096356;28;20016;-51
2021/06/16 04:01:21;;;;;;;1.50;0.63;;;25.30;37.50;;;;;;5086357;28;20032;-52
2021/06/16 04:03:48;;;;;;;1.27;0.52;;;25.30;37.50;;;;;;5087374;28;20039;-49
2021/06/16 04:06:15;;;;;;;1.33;0.50;;;25.30;37.50;;;;;;5097417;28;20046;-50
2021/06/16 04:08:44;;;;;;;1.48;0.65;;;25.30;37.50;;;;;;5094579;28;20028;-53
2021/06/16 04:11:14;;;;;;;3.33;0.80;;;25.30;37.50;;;;;;5085752;28;20054;-48
2021/06/16 04:13:41;;;;;;;1.23;0.60;;;25.30;37.50;;;;;;5096044;28;20085;-53
2021/06/16 04:16:08;;;;;;;1.88;0.90;;;25.40;37.60;;;;;;5096569;28;20514;-51
2021/06/16 04:18:37;;;;;;;1.95;0.45;;;25.30;37.50;;;;;;5096269;28;20048;-53
2021/06/16 04:21:03;;;;;;;1.25;0.57;;;25.30;37.60;;;;;;5088385;28;20025;-46
2021/06/16 04:23:30;;;;;;;1.65;0.70;;;25.30;37.50;;;;;;5076731;28;20039;-52
2021/06/16 04:25:56;;;;;;;1.17;0.50;;;25.30;37.60;;;;;;5085156;28;20035;-49
2021/06/16 04:28:22;;;;;;;0.70;0.50;;;25.30;37.60;;;;;;5095820;28;20802;-49
2021/06/16 04:30:47;;;;;;;1.55;0.70;;;25.30;37.60;;;;;;5096389;28;20111;-50
2021/06/16 04:33:13;;;;;;;0.77;0.50;;;25.30;37.60;;;;;;5094059;28;20043;-53
2021/06/16 04:35:39;;;;;;;2.63;0.90;;;25.30;37.60;;;;;;5076396;28;20047;-49
2021/06/16 04:38:05;;;;;;;1.30;0.60;;;25.30;37.60;;;;;;5085706;28;20028;-48
2021/06/16 04:40:31;;;;;;;2.28;0.75;;;25.30;37.60;;;;;;5095036;28;20039;-54
2021/06/16 04:42:57;;;;;;;2.33;0.70;;;25.30;37.70;;;;;;5096037;28;20020;-46
2021/06/16 04:45:22;;;;;;;1.60;0.55;;;25.30;37.70;;;;;;5093794;28;20060;-47
2021/06/16 04:47:48;;;;;;;1.27;0.60;;;25.30;37.70;;;;;;5083443;28;20035;-49
2021/06/16 04:50:16;;;;;;;1.48;0.63;;;25.30;37.70;;;;;;5082101;28;20323;-51
2021/06/16 04:52:42;;;;;;;1.92;0.70;;;25.30;37.70;;;;;;5094596;28;20494;-50
2021/06/16 04:55:10;;;;;;;1.45;0.60;;;25.30;37.80;;;;;;5095900;28;20374;-51
2021/06/16 04:57:36;;;;;;;2.28;0.63;;;25.30;37.80;;;;;;5095762;28;20050;-49
2021/06/16 05:00:04;;;;;;;1.65;0.68;;;25.30;37.80;;;;;;5095650;28;20385;-51
2021/06/16 05:02:30;;;;;;;2.13;0.65;;;25.30;37.80;;;;;;5080484;28;20047;-52
2021/06/16 05:04:56;;;;;;;1.83;0.60;;;25.30;37.80;;;;;;5087296;28;20447;-52
2021/06/16 05:07:22;;;;;;;3.42;0.70;;;25.30;37.80;;;;;;5095570;28;20035;-57
2021/06/16 05:09:47;;;;;;;1.67;0.60;;;25.30;37.90;;;;;;5082174;28;20033;-54
2021/06/16 05:12:13;;;;;;;1.23;0.55;;;25.30;37.90;;;;;;5088845;28;20032;-57
2021/06/16 05:14:39;;;;;;;1.00;0.47;;;25.30;37.90;;;;;;5087538;28;20067;-53
2021/06/16 05:17:06;;;;;;;1.63;0.70;;;25.30;37.90;;;;;;5096295;28;20470;-49
2021/06/16 05:19:33;;;;;;;1.90;0.60;;;25.30;37.90;;;;;;5094559;28;20055;-51
2021/06/16 05:22:13;;;;;;;1.77;0.60;;;25.30;38.00;;;;;;5092632;28;20048;-55
2021/06/16 05:24:40;;;;;;;0.85;0.45;;;25.30;38.00;;;;;;5087594;28;20101;-54
2021/06/16 05:27:07;;;;;;;1.58;0.40;;;25.30;38.10;;;;;;5092572;28;20051;-53
2021/06/16 05:29:33;;;;;;;1.52;0.70;;;25.30;38.10;;;;;;5090544;28;20036;-54
2021/06/16 05:32:00;;;;;;;1.30;0.60;;;25.30;38.10;;;;;;5093424;28;20051;-57
2021/06/16 05:34:26;;;;;;;1.83;0.75;;;25.30;38.20;;;;;;5093754;28;20051;-55
2021/06/16 05:36:52;;;;;;;0.52;0.43;;;25.30;38.20;;;;;;5086541;28;20035;-56
2021/06/16 05:39:18;;;;;;;3.75;1.05;;;25.30;38.30;;;;;;5076679;28;20440;-53
2021/06/16 05:41:43;;;;;;;1.77;0.73;;;25.30;38.30;;;;;;5091117;28;20031;-56
2021/06/16 05:44:09;;;;;;;2.55;0.75;;;25.30;38.40;;;;;;5095727;28;20020;-53
2021/06/16 05:46:35;;;;;;;1.27;0.40;;;25.30;38.40;;;;;;5089031;28;20028;-56
2021/06/16 05:49:01;;;;;;;1.73;0.80;;;25.40;38.40;;;;;;5094694;28;20028;-56
2021/06/16 05:51:27;;;;;;;1.20;0.60;;;25.40;38.50;;;;;;5088013;28;20376;-56
2021/06/16 05:53:53;;;;;;;1.77;1.00;;;25.30;38.50;;;;;;5093854;28;20039;-55
2021/06/16 05:56:18;;;;;;;1.65;0.60;;;25.30;38.50;;;;;;5094844;28;20526;-55
2021/06/16 05:58:44;;;;;;;1.38;0.65;;;25.30;38.50;;;;;;5080497;28;20012;-55
2021/06/16 06:01:10;;;;;;;1.92;0.60;;;25.40;38.70;;;;;;5086370;28;20440;-50
2021/06/16 06:03:37;;;;;;;1.65;0.60;;;25.30;38.60;;;;;;5092808;28;20024;-52
2021/06/16 06:06:03;;;;;;;1.92;0.68;;;25.30;38.70;;;;;;5094624;28;20028;-50
2021/06/16 06:08:29;;;;;;;1.52;0.70;;;25.30;38.70;;;;;;5093253;28;20311;-51
2021/06/16 06:10:57;;;;;;;3.10;0.70;;;25.30;38.80;;;;;;5093802;28;20032;-53
2021/06/16 06:13:23;;;;;;;1.15;0.60;;;25.40;38.80;;;;;;5093600;28;20074;-54
2021/06/16 06:15:49;;;;;;;2.05;0.80;;;25.30;38.90;;;;;;5093891;28;20492;-55
2021/06/16 06:18:15;;;;;;;2.10;0.80;;;25.40;39.00;;;;;;5090773;28;20212;-50
2021/06/16 06:20:41;;;;;;;2.03;0.80;;;25.40;39.00;;;;;;5094822;28;20351;-50
2021/06/16 06:23:07;;;;;;;1.85;0.90;;;25.40;39.10;;;;;;5093929;28;20032;-54
2021/06/16 06:25:33;;;;;;;2.65;0.55;;;25.40;39.10;;;;;;5094596;28;20024;-54
2021/06/16 06:27:59;;;;;;;1.25;0.77;;;25.40;39.20;;;;;;5083487;28;20048;-50
2021/06/16 06:30:25;;;;;;;0.98;0.63;;;25.40;39.20;;;;;;5087946;28;20061;-50
2021/06/16 06:32:50;;;;;;;2.22;0.80;;;25.40;39.30;;;;;;5090235;28;20106;-54
2021/06/16 06:35:16;;;;;;;1.30;0.70;;;25.40;39.30;;;;;;5090160;28;20028;-56
2021/06/16 06:37:42;;;;;;;1.27;0.70;;;25.40;39.40;;;;;;5084276;28;20020;-50
2021/06/16 06:40:08;;;;;;;1.13;0.60;;;25.40;39.40;;;;;;5078337;28;20024;-53
2021/06/16 06:42:34;;;;;;;2.42;0.70;;;25.40;39.50;;;;;;5076091;28;20167;-50
2021/06/16 06:45:00;;;;;;;1.40;0.73;;;25.40;39.50;;;;;;5083639;28;20687;-52
2021/06/16 06:47:26;;;;;;;1.75;0.60;;;25.40;39.60;;;;;;5092722;28;20101;-54
2021/06/16 06:49:53;;;;;;;1.40;0.70;;;25.40;39.70;;;;;;5089181;28;20032;-53
2021/06/16 06:52:19;;;;;;;1.30;0.50;;;25.40;39.70;;;;;;5093615;28;20036;-53
2021/06/16 06:54:45;;;;;;;1.85;0.75;;;25.40;39.70;;;;;;5093958;28;20040;-51
2021/06/16 06:57:11;;;;;;;2.38;0.95;;;25.40;39.80;;;;;;5092893;28;20035;-53
2021/06/16 06:59:37;;;;;;;1.60;0.60;;;25.40;39.80;;;;;;5094147;28;20042;-52
2021/06/16 07:02:03;;;;;;;0.90;0.60;;;25.40;39.80;;;;;;5094012;28;20044;-55
2021/06/16 07:04:28;;;;;;;1.98;0.93;;;25.50;39.90;;;;;;5093292;28;20039;-52
2021/06/16 07:06:55;;;;;;;1.27;0.80;;;25.50;40.00;;;;;;5094417;28;20024;-53
2021/06/16 07:09:21;;;;;;;1.48;0.60;;;25.40;40.00;;;;;;5093575;28;20121;-50
2021/06/16 07:11:47;;;;;;;1.83;0.70;;;25.40;40.00;;;;;;5091252;28;20032;-52
2021/06/16 07:14:12;;;;;;;1.05;0.50;;;25.50;40.10;;;;;;5093139;28;20435;-55
2021/06/16 07:16:38;;;;;;;2.65;0.80;;;25.50;40.20;;;;;;5093676;28;20025;-51
2021/06/16 07:19:04;;;;;;;1.55;0.80;;;25.50;40.20;;;;;;5093883;28;20135;-50
2021/06/16 07:21:30;;;;;;;1.23;0.70;;;25.40;40.20;;;;;;5093501;28;20486;-54
2021/06/16 07:23:55;;;;;;;3.40;1.23;;;25.40;40.20;;;;;;5093822;28;20040;-51
2021/06/16 07:26:21;;;;;;;1.60;0.80;;;25.50;40.30;;;;;;5092846;28;20399;-54
2021/06/16 07:28:47;;;;;;;1.65;0.70;;;25.40;40.20;;;;;;5092527;28;20032;-50
2021/06/16 07:31:13;;;;;;;1.40;0.70;;;25.50;40.30;;;;;;5093752;28;20031;-53
2021/06/16 07:33:38;;;;;;;1.88;0.70;;;25.50;40.40;;;;;;5093251;28;20344;-55
2021/06/16 07:36:05;;;;;;;2.40;0.80;;;25.50;40.30;;;;;;5091790;28;20040;-54
2021/06/16 07:38:31;;;;;;;1.70;0.70;;;25.50;40.40;;;;;;5090585;28;20016;-52
2021/06/16 07:40:58;;;;;;;0.93;0.65;;;25.50;40.40;;;;;;5093712;28;20119;-49
2021/06/16 07:43:23;;;;;;;2.00;0.95;;;25.60;40.40;;;;;;5094106;28;20028;-53
2021/06/16 07:45:49;;;;;;;0.88;0.57;;;25.60;40.40;;;;;;5093345;28;20098;-49
2021/06/16 07:48:15;;;;;;;1.45;0.80;;;25.60;40.30;;;;;;5091787;28;20390;-52
2021/06/16 07:50:42;;;;;;;0.77;0.50;;;25.60;40.30;;;;;;5093747;28;20427;-53
2021/06/16 07:53:08;;;;;;;1.98;0.95;;;25.60;40.20;;;;;;5093744;28;20032;-51
2021/06/16 07:55:36;;;;;;;1.42;0.70;;;25.60;40.20;;;;;;5093752;28;20127;-51
2021/06/16 07:58:03;;;;;;;1.52;0.77;;;25.60;40.20;;;;;;5093363;28;20028;-50
2021/06/16 08:00:31;;;;;;;0.93;0.52;;;25.60;40.10;;;;;;5093422;28;20397;-50
2021/06/16 08:02:56;;;;;;;3.05;0.60;;;25.60;40.10;;;;;;5093030;28;20111;-50
2021/06/16 08:05:22;;;;;;;1.27;0.60;;;25.70;40.10;;;;;;5093689;28;20115;-48
2021/06/16 08:07:48;;;;;;;2.00;0.60;;;25.60;40.00;;;;;;5093245;28;20138;-53
2021/06/16 08:10:14;;;;;;;1.60;0.70;;;25.70;40.00;;;;;;5093707;28;20423;-51
2021/06/16 08:12:41;;;;;;;2.33;0.57;;;25.70;40.00;;;;;;5093381;28;20059;-56
2021/06/16 08:15:08;;;;;;;0.70;0.50;;;25.70;39.90;;;;;;5093305;28;20114;-50
2021/06/16 08:17:34;;;;;;;1.15;0.60;;;25.70;39.90;;;;;;5096311;28;20038;-52
2021/06/16 08:20:00;;;;;;;0.60;0.50;;;25.70;39.90;;;;;;5096232;28;20119;-49
2021/06/16 08:22:26;;;;;;;0.90;0.45;;;25.70;39.80;;;;;;5096991;28;20134;-52
2021/06/16 08:24:52;;;;;;;1.17;0.60;;;25.70;39.80;;;;;;5097135;28;20050;-50
2021/06/16 08:27:17;;;;;;;1.05;0.63;;;25.80;39.90;;;;;;5097084;28;20032;-54
2021/06/16 08:29:43;;;;;;;1.27;0.60;;;25.80;39.80;;;;;;5095630;28;20035;-52
2021/06/16 08:32:09;;;;;;;0.85;0.50;;;25.80;39.80;;;;;;5097169;28;20115;-51
2021/06/16 08:34:36;;;;;;;1.08;0.57;;;25.80;39.80;;;;;;5096657;28;20059;-50
2021/06/16 08:37:03;;;;;;;1.95;0.57;;;25.80;39.80;;;;;;5097148;28;20056;-52
2021/06/16 08:39:29;;;;;;;1.23;0.60;;;25.80;39.80;;;;;;5096263;28;20386;-51
2021/06/16 08:41:55;;;;;;;0.75;0.50;;;25.80;39.80;;;;;;5097011;28;20032;-50
2021/06/16 08:44:21;;;;;;;0.93;0.50;;;25.80;39.70;;;;;;5096042;28;20051;-48
2021/06/16 08:46:48;;;;;;;0.73;0.50;;;25.80;39.70;;;;;;5097219;28;20052;-49
2021/06/16 08:49:14;;;;;;;0.75;0.55;;;25.90;39.80;;;;;;5091766;28;20074;-52
2021/06/16 08:51:41;;;;;;;0.60;0.50;;;25.90;39.80;;;;;;5081490;28;20031;-53
2021/06/16 08:54:09;;;;;;;1.88;0.50;;;25.90;39.80;;;;;;5096142;28;20107;-52
2021/06/16 08:56:35;;;;;;;0.93;0.50;;;25.90;39.80;;;;;;5095992;28;20486;-55
2021/06/16 08:59:01;;;;;;;1.35;0.60;;;25.90;39.80;;;;;;5096492;28;20112;-56
2021/06/16 09:01:27;;;;;;;1.30;0.30;;;25.90;39.80;;;;;;5096113;28;20107;-58
2021/06/16 09:03:53;;;;;;;0.98;0.55;;;25.90;39.80;;;;;;5096162;28;20035;-56
2021/06/16 09:06:19;;;;;;;1.52;0.77;;;25.90;39.80;;;;;;5096077;28;20039;-59
2021/06/16 09:09:07;;;;;;;2.40;0.80;;;25.90;40.40;;;;;;5092191;28;20024;-52
2021/06/16 09:11:46;;;;;;;2.20;0.70;;;25.90;39.80;;;;;;5094023;28;20111;-56
2021/06/16 09:14:17;;;;;;;0.60;0.40;;;25.90;39.90;;;;;;5089261;28;20044;-56
2021/06/16 09:16:46;;;;;;;1.10;0.65;;;25.90;39.90;;;;;;5083339;28;20028;-57
2021/06/16 09:19:30;;;;;;;0.70;0.52;;;25.90;39.90;;;;;;5086248;28;20051;-57
2021/06/16 09:22:01;;;;;;;;;;;26.00;40.00;;;;;;5076534;28;20119;-51
2021/06/16 09:24:50;;;;;;;0.32;0.30;;;25.90;40.00;;;;;;5076105;28;19915;-54
2021/06/16 09:28:01;;;;;;;0.93;0.70;;;26.00;40.00;;;;;;5075377;28;20043;-49
2021/06/16 09:30:28;;;;;;;0.75;0.50;;;26.00;39.90;;;;;;5076692;28;20048;-51
2021/06/16 09:32:58;;;;;;;1.05;0.70;;;26.00;40.00;;;;;;5096302;28;20460;-49
2021/06/16 09:35:25;;;;;;;1.27;0.60;;;26.10;39.90;;;;;;5095572;28;20043;-49
2021/06/16 09:37:52;;;;;;;0.65;0.40;;;26.10;39.90;;;;;;5095729;28;20034;-50
2021/06/16 09:40:29;;;;;;;1.33;0.70;;;26.10;39.80;;;;;;5095709;28;20028;-52
2021/06/16 09:43:03;;;;;;;0.85;0.50;;;26.20;39.80;;;;;;5095900;28;20051;-49
2021/06/16 09:45:30;;;;;;;1.45;0.70;;;26.20;39.80;;;;;;5094364;28;20041;-51
2021/06/16 09:47:56;;;;;;;0.70;0.50;;;26.20;39.70;;;;;;5095451;28;20040;-49
2021/06/16 09:50:24;;;;;;;1.00;0.70;;;26.20;39.70;;;;;;5094403;28;20040;-46
2021/06/16 09:52:51;;;;;;;1.17;0.60;;;26.20;39.60;;;;;;5095524;28;20039;-52
2021/06/16 09:55:43;;;;;;;0.93;0.77;;;26.30;39.70;;;;;;5095629;28;20055;-49
2021/06/16 09:58:11;;;;;;;1.10;0.60;;;26.30;39.50;;;;;;5093285;28;20044;-53
2021/06/16 10:00:40;;;;;;;1.05;0.77;;;26.30;39.50;;;;;;5095264;28;20042;-48
2021/06/16 10:03:13;;;;;;;0.68;0.50;;;26.30;39.50;;;;;;5095194;28;20119;-49
2021/06/16 10:06:02;;;;;;;0.70;0.40;;;26.40;39.60;;;;;;5095444;28;20035;-51
2021/06/16 10:08:29;;;;;;;0.82;0.60;;;26.40;39.50;;;;;;5094473;28;20048;-50
2021/06/16 10:10:54;;;;;;;0.90;0.63;;;26.40;39.50;;;;;;5094675;28;20032;-50
2021/06/16 10:13:21;;;;;;;0.68;0.68;;;26.40;39.50;;;;;;5095269;28;20032;-52
2021/06/16 10:15:47;;;;;;;0.95;0.50;;;26.40;39.40;;;;;;5094804;28;20096;-50
2021/06/16 10:18:13;;;;;;;0.60;0.50;;;26.40;39.40;;;;;;5095003;28;20606;-50
2021/06/16 10:20:38;;;;;;;0.60;0.40;;;26.50;39.50;;;;;;5094994;28;20042;-55
2021/06/16 10:23:04;;;;;;;1.33;0.82;;;26.50;39.40;;;;;;5094990;28;20178;-51
2021/06/16 10:25:30;;;;;;;0.70;0.50;;;26.50;39.50;;;;;;5094508;28;20031;-52
2021/06/16 10:28:00;;;;;;;0.40;0.40;;;26.50;39.40;;;;;;5094149;28;20431;-54
2021/06/16 10:30:28;;;;;;;0.73;0.63;;;26.50;39.40;;;;;;5094753;28;20400;-51
2021/06/16 10:32:55;;;;;;;2.47;0.70;;;26.50;39.40;;;;;;5094564;28;20040;-50
2021/06/16 10:35:34;;;;;;;0.73;0.50;;;26.50;39.40;;;;;;5094301;28;20027;-54
2021/06/16 10:38:13;;;;;;;0.85;0.70;;;26.50;39.40;;;;;;5094208;28;20062;-55
2021/06/16 10:40:51;;;;;;;0.75;0.52;;;26.50;39.40;;;;;;5093698;28;20107;-52
2021/06/16 10:43:28;;;;;;;0.70;0.50;;;26.50;39.40;;;;;;5094717;28;20039;-52
2021/06/16 10:46:00;;;;;;;1.10;0.60;;;26.50;39.40;;;;;;5094631;28;20024;-53
2021/06/16 10:48:49;;;;;;;1.10;0.75;;;26.50;39.40;;;;;;5094485;28;20034;-54
2021/06/16 10:51:26;;;;;;;0.82;0.70;;;26.50;39.40;;;;;;5094435;28;20028;-53
2021/06/16 10:54:10;;;;;;;1.35;0.60;;;26.50;39.40;;;;;;5094501;28;20074;-47
2021/06/16 10:56:42;;;;;;;0.50;0.50;;;26.50;39.40;;;;;;5094432;28;20043;-49
2021/06/16 10:59:08;;;;;;;0.68;0.60;;;26.50;39.40;;;;;;5088748;28;20316;-57
2021/06/16 11:01:50;;;;;;;1.35;0.93;;;26.50;39.50;;;;;;5089269;28;20094;-47
2021/06/16 11:04:30;;;;;;;0.93;0.73;;;26.60;39.50;;;;;;5078221;28;20032;-48
2021/06/16 11:06:58;;;;;;;0.90;0.73;;;26.60;39.40;;;;;;5080194;28;20036;-47
2021/06/16 11:09:52;;;;;;;0.60;0.50;;;26.50;39.30;;;;;;5079983;28;20090;-47
2021/06/16 11:12:54;;;;;;;0.95;0.73;;;26.50;39.20;;;;;;5082437;28;20032;-50
2021/06/16 11:15:25;;;;;;;1.08;0.70;;;26.50;39.20;;;;;;5081681;28;20032;-46
2021/06/16 11:17:57;;;;;;;3.70;0.73;;;26.50;39.20;;;;;;5089436;28;20074;-50
2021/06/16 11:20:37;;;;;;;1.40;0.85;;;26.50;39.30;;;;;;5087534;28;20131;-51
2021/06/16 11:23:05;;;;;;;0.77;0.68;;;26.50;39.30;;;;;;5081857;28;20100;-52
2021/06/16 11:25:38;;;;;;;3.05;0.70;;;26.50;39.30;;;;;;5078897;28;20059;-55
2021/06/16 11:28:26;;;;;;;1.05;0.95;;;26.50;39.40;;;;;;5091276;28;20024;-56
2021/06/16 11:30:55;;;;;;;1.00;0.80;;;26.50;39.50;;;;;;5089692;28;20024;-49
2021/06/16 11:35:55;;;;;;;2.75;1.02;;;26.50;39.50;;;;;;5077869;28;20032;-53
2021/06/16 11:38:21;;;;;;;2.55;0.70;;;26.50;39.50;;;;;;5073847;28;20444;-52
2021/06/16 11:41:09;;;;;;;1.17;0.88;;;26.50;39.50;;;;;;5089762;28;20056;-54
2021/06/16 11:43:36;;;;;;;0.90;0.90;;;26.50;39.50;;;;;;5085930;28;20038;-50
2021/06/16 11:46:05;;;;;;;1.00;0.70;;;26.50;39.50;;;;;;5088607;28;20036;-50
2021/06/16 11:48:33;;;;;;;2.28;0.80;;;26.40;39.50;;;;;;5088662;28;20032;-52
2021/06/16 11:50:58;;;;;;;0.95;0.80;;;26.50;39.60;;;;;;5086573;28;20353;-52
2021/06/16 11:53:26;;;;;;;1.52;0.80;;;26.50;39.60;;;;;;5094096;28;20038;-57
2021/06/16 11:55:53;;;;;;;0.98;0.80;;;26.50;39.70;;;;;;5088051;28;20095;-55
2021/06/16 11:58:40;;;;;;;1.35;0.90;;;26.50;39.70;;;;;;5085574;28;20028;-52
2021/06/16 12:01:08;;;;;;;1.50;0.98;;;26.50;39.80;;;;;;5097094;28;20032;-49
2021/06/16 12:03:36;;;;;;;1.30;0.90;;;26.50;39.90;;;;;;5089135;28;20404;-52
2021/06/16 12:06:06;;;;;;;1.17;1.00;;;26.50;39.90;;;;;;5097392;28;20036;-57
2021/06/16 12:08:34;;;;;;;2.00;0.90;;;26.50;40.00;;;;;;5086766;28;20055;-51
2021/06/16 12:11:00;;;;;;;1.65;1.33;;;26.60;40.00;;;;;;5082676;28;20050;-52
2021/06/16 12:13:27;;;;;;;1.40;1.13;;;26.60;40.00;;;;;;5091711;28;20038;-54
2021/06/16 12:15:53;;;;;;;1.60;1.13;;;26.60;40.00;;;;;;5089539;28;20317;-54
2021/06/16 12:18:19;;;;;;;0.93;0.82;;;26.60;40.10;;;;;;5085194;28;20043;-55
2021/06/16 12:20:44;;;;;;;2.80;1.00;;;26.60;40.10;;;;;;5076683;28;20048;-52
2021/06/16 12:23:19;;;;;;;3.08;1.10;;;26.60;40.10;;;;;;5086561;28;20071;-50
2021/06/16 12:25:45;;;;;;;0.93;0.80;;;26.60;40.10;;;;;;5085275;28;20020;-51
2021/06/16 12:28:11;;;;;;;1.23;0.90;;;26.60;40.10;;;;;;5087187;28;20421;-50
2021/06/16 12:30:37;;;;;;;1.52;1.00;;;26.60;40.10;;;;;;5087791;28;20098;-52
2021/06/16 12:33:23;;;;;;;1.33;1.08;;;26.60;40.10;;;;;;5086877;28;20055;-49
2021/06/16 12:36:11;;;;;;;1.10;0.90;;;26.60;40.10;;;;;;5088353;28;20537;-51
2021/06/16 12:38:48;;;;;;;0.95;0.90;;;26.60;40.10;;;;;;5089355;28;20044;-53
2021/06/16 12:41:21;;;;;;;1.13;1.00;;;26.60;40.10;;;;;;5085975;28;20023;-49
2021/06/16 12:43:48;;;;;;;1.03;0.90;;;26.60;40.10;;;;;;5091464;28;20024;-53
2021/06/16 12:46:13;;;;;;;1.50;1.10;;;26.60;40.10;;;;;;5086384;28;20043;-51
2021/06/16 12:48:40;;;;;;;1.25;1.05;;;26.50;40.00;;;;;;5093108;28;20433;-53
2021/06/16 12:51:06;;;;;;;1.08;0.98;;;26.50;40.10;;;;;;5087341;28;20039;-54
2021/06/16 12:53:40;;;;;;;1.20;1.10;;;26.60;40.10;;;;;;5090052;28;20028;-54
2021/06/16 12:56:07;;;;;;;1.00;0.95;;;26.60;40.10;;;;;;5082107;28;20371;-54
2021/06/16 12:58:45;;;;;;;2.80;1.10;;;26.50;40.10;;;;;;5088369;28;20032;-51